sensor_id;sensor_type;location;lat;lon;timestamp;temperature;humidity
43679;DHT22;29279;50.858;4.392;2023-03-16T00:00:12;8.00;99.90
43679;DHT22;29279;50.858;4.392;2023-03-16T00:02:42;8.00;99.90
43679;DHT22;29279;50.858;4.392;2023-03-16T00:05:09;7.90;99.90
43679;DHT22;29279;50.858;4.392;2023-03-16T00:07:35;7.90;99.90
43679;DHT22;29279;50.858;4.392;2023-03-16T00:10:01;8.00;99.90
43679;DHT22;29279;50.858;4.392;2023-03-16T00:12:28;8.00;99.90
43679;DHT22;29279;50.858;4.392;2023-03-16T00:14:54;8.00;99.90
43679;DHT22;29279;50.858;4.392;2023-03-16T00:17:20;8.00;99.90
43679;DHT22;29279;50.858;4.392;2023-03-16T00:19:51;8.00;99.90
43679;DHT22;29279;50.858;4.392;2023-03-16T00:22:42;8.00;99.90
43679;DHT22;29279;50.858;4.392;2023-03-16T00:25:08;7.90;99.90
43679;DHT22;29279;50.858;4.392;2023-03-16T00:27:38;7.90;99.90
43679;DHT22;29279;50.858;4.392;2023-03-16T00:30:05;7.90;99.90
43679;DHT22;29279;50.858;4.392;2023-03-16T00:32:35;7.90;99.90
43679;DHT22;29279;50.858;4.392;2023-03-16T00:35:02;8.00;99.90
43679;DHT22;29279;50.858;4.392;2023-03-16T00:37:28;8.10;99.90
43679;DHT22;29279;50.858;4.392;2023-03-16T00:39:55;8.00;99.90
43679;DHT22;29279;50.858;4.392;2023-03-16T00:42:21;8.00;99.90
43679;DHT22;29279;50.858;4.392;2023-03-16T00:44:52;7.90;99.90
43679;DHT22;29279;50.858;4.392;2023-03-16T00:47:22;7.90;99.90
43679;DHT22;29279;50.858;4.392;2023-03-16T00:49:49;8.00;99.90
43679;DHT22;29279;50.858;4.392;2023-03-16T00:52:15;7.90;99.90
43679;DHT22;29279;50.858;4.392;2023-03-16T00:54:42;8.00;99.90
43679;DHT22;29279;50.858;4.392;2023-03-16T00:57:10;7.90;99.90
43679;DHT22;29279;50.858;4.392;2023-03-16T00:59:36;8.00;99.90
43679;DHT22;29279;50.858;4.392;2023-03-16T01:02:04;8.20;99.90
43679;DHT22;29279;50.858;4.392;2023-03-16T01:04:30;8.10;99.90
43679;DHT22;29279;50.858;4.392;2023-03-16T01:06:57;8.10;99.90
43679;DHT22;29279;50.858;4.392;2023-03-16T01:09:22;8.10;99.90
43679;DHT22;29279;50.858;4.392;2023-03-16T01:11:48;8.00;99.90
43679;DHT22;29279;50.858;4.392;2023-03-16T01:14:18;8.10;99.90
43679;DHT22;29279;50.858;4.392;2023-03-16T01:16:43;8.00;99.90
43679;DHT22;29279;50.858;4.392;2023-03-16T01:19:11;8.10;99.90
43679;DHT22;29279;50.858;4.392;2023-03-16T01:21:38;8.00;99.90
43679;DHT22;29279;50.858;4.392;2023-03-16T01:24:04;8.10;99.90
43679;DHT22;29279;50.858;4.392;2023-03-16T01:26:30;8.10;99.90
43679;DHT22;29279;50.858;4.392;2023-03-16T01:28:56;8.00;99.90
43679;DHT22;29279;50.858;4.392;2023-03-16T01:31:22;8.00;99.90
43679;DHT22;29279;50.858;4.392;2023-03-16T01:33:48;8.10;99.90
43679;DHT22;29279;50.858;4.392;2023-03-16T01:36:17;8.10;99.90
43679;DHT22;29279;50.858;4.392;2023-03-16T01:38:43;8.20;99.90
43679;DHT22;29279;50.858;4.392;2023-03-16T01:41:09;8.10;99.90
43679;DHT22;29279;50.858;4.392;2023-03-16T01:43:37;8.00;99.90
43679;DHT22;29279;50.858;4.392;2023-03-16T01:51:16;7.90;99.90
43679;DHT22;29279;50.858;4.392;2023-03-16T01:53:48;8.00;99.90
43679;DHT22;29279;50.858;4.392;2023-03-16T01:56:19;7.90;99.90
43679;DHT22;29279;50.858;4.392;2023-03-16T01:58:47;8.00;99.90
43679;DHT22;29279;50.858;4.392;2023-03-16T02:01:16;8.00;99.90
43679;DHT22;29279;50.858;4.392;2023-03-16T02:03:43;8.10;99.90
43679;DHT22;29279;50.858;4.392;2023-03-16T02:06:11;8.00;99.90
43679;DHT22;29279;50.858;4.392;2023-03-16T02:08:39;7.90;99.90
43679;DHT22;29279;50.858;4.392;2023-03-16T02:11:07;8.10;99.90
43679;DHT22;29279;50.858;4.392;2023-03-16T02:13:34;8.20;99.90
43679;DHT22;29279;50.858;4.392;2023-03-16T02:16:02;8.20;99.90
43679;DHT22;29279;50.858;4.392;2023-03-16T02:18:30;8.20;99.90
43679;DHT22;29279;50.858;4.392;2023-03-16T02:21:00;8.10;99.90
43679;DHT22;29279;50.858;4.392;2023-03-16T02:23:30;7.90;99.90
43679;DHT22;29279;50.858;4.392;2023-03-16T02:28:48;7.80;99.90
43679;DHT22;29279;50.858;4.392;2023-03-16T02:31:17;8.10;99.90
43679;DHT22;29279;50.858;4.392;2023-03-16T02:33:44;8.10;99.90
43679;DHT22;29279;50.858;4.392;2023-03-16T02:36:13;7.90;99.90
43679;DHT22;29279;50.858;4.392;2023-03-16T02:38:39;8.00;99.90
43679;DHT22;29279;50.858;4.392;2023-03-16T02:43:40;8.00;99.90
43679;DHT22;29279;50.858;4.392;2023-03-16T02:46:06;7.90;99.90
43679;DHT22;29279;50.858;4.392;2023-03-16T02:48:50;8.00;99.90
43679;DHT22;29279;50.858;4.392;2023-03-16T02:51:18;8.00;99.90
43679;DHT22;29279;50.858;4.392;2023-03-16T02:53:44;8.00;99.90
43679;DHT22;29279;50.858;4.392;2023-03-16T02:56:09;8.00;99.90
43679;DHT22;29279;50.858;4.392;2023-03-16T02:58:35;8.10;99.90
43679;DHT22;29279;50.858;4.392;2023-03-16T03:01:01;8.20;99.90
43679;DHT22;29279;50.858;4.392;2023-03-16T03:03:28;8.00;99.90
43679;DHT22;29279;50.858;4.392;2023-03-16T03:05:54;8.00;99.90
43679;DHT22;29279;50.858;4.392;2023-03-16T03:08:19;8.00;99.90
43679;DHT22;29279;50.858;4.392;2023-03-16T03:10:47;7.90;99.90
43679;DHT22;29279;50.858;4.392;2023-03-16T03:13:13;7.90;99.90
43679;DHT22;29279;50.858;4.392;2023-03-16T03:15:39;7.90;99.90
43679;DHT22;29279;50.858;4.392;2023-03-16T03:18:05;8.00;99.90
43679;DHT22;29279;50.858;4.392;2023-03-16T03:20:31;8.00;99.90
43679;DHT22;29279;50.858;4.392;2023-03-16T03:22:57;8.00;99.90
43679;DHT22;29279;50.858;4.392;2023-03-16T03:25:23;8.00;99.90
43679;DHT22;29279;50.858;4.392;2023-03-16T03:27:50;8.00;99.90
43679;DHT22;29279;50.858;4.392;2023-03-16T03:30:20;8.00;99.90
43679;DHT22;29279;50.858;4.392;2023-03-16T03:32:46;8.00;99.90
43679;DHT22;29279;50.858;4.392;2023-03-16T03:35:13;8.10;99.90
43679;DHT22;29279;50.858;4.392;2023-03-16T03:37:41;8.00;99.90
43679;DHT22;29279;50.858;4.392;2023-03-16T03:40:09;8.00;99.90
43679;DHT22;29279;50.858;4.392;2023-03-16T03:42:37;7.90;99.90
43679;DHT22;29279;50.858;4.392;2023-03-16T03:45:04;8.00;99.90
43679;DHT22;29279;50.858;4.392;2023-03-16T03:47:30;8.10;99.90
43679;DHT22;29279;50.858;4.392;2023-03-16T03:49:56;8.20;99.90
43679;DHT22;29279;50.858;4.392;2023-03-16T03:52:21;8.20;99.90
43679;DHT22;29279;50.858;4.392;2023-03-16T03:54:47;8.00;99.90
43679;DHT22;29279;50.858;4.392;2023-03-16T03:57:13;8.00;99.90
43679;DHT22;29279;50.858;4.392;2023-03-16T03:59:38;7.90;99.90
43679;DHT22;29279;50.858;4.392;2023-03-16T04:02:11;8.00;99.90
43679;DHT22;29279;50.858;4.392;2023-03-16T04:04:38;7.90;99.90
43679;DHT22;29279;50.858;4.392;2023-03-16T04:07:03;7.90;99.90
43679;DHT22;29279;50.858;4.392;2023-03-16T04:09:30;7.90;99.90
43679;DHT22;29279;50.858;4.392;2023-03-16T04:12:00;7.80;99.90
43679;DHT22;29279;50.858;4.392;2023-03-16T04:14:27;7.80;99.90
43679;DHT22;29279;50.858;4.392;2023-03-16T04:16:53;7.80;99.90
43679;DHT22;29279;50.858;4.392;2023-03-16T04:19:20;7.80;99.90
43679;DHT22;29279;50.858;4.392;2023-03-16T04:21:47;7.80;99.90
43679;DHT22;29279;50.858;4.392;2023-03-16T04:24:12;7.90;99.90
43679;DHT22;29279;50.858;4.392;2023-03-16T04:26:40;7.80;99.90
43679;DHT22;29279;50.858;4.392;2023-03-16T04:29:06;7.70;99.90
43679;DHT22;29279;50.858;4.392;2023-03-16T04:31:32;7.90;99.90
43679;DHT22;29279;50.858;4.392;2023-03-16T04:33:57;8.00;99.90
43679;DHT22;29279;50.858;4.392;2023-03-16T04:36:23;8.00;99.90
43679;DHT22;29279;50.858;4.392;2023-03-16T04:38:49;8.00;99.90
43679;DHT22;29279;50.858;4.392;2023-03-16T04:41:15;7.90;99.90
43679;DHT22;29279;50.858;4.392;2023-03-16T04:43:42;7.80;99.90
43679;DHT22;29279;50.858;4.392;2023-03-16T04:46:08;7.90;99.90
43679;DHT22;29279;50.858;4.392;2023-03-16T04:48:34;7.90;99.90
43679;DHT22;29279;50.858;4.392;2023-03-16T04:51:01;7.90;99.90
43679;DHT22;29279;50.858;4.392;2023-03-16T04:53:28;7.90;99.90
43679;DHT22;29279;50.858;4.392;2023-03-16T04:55:54;7.80;99.90
43679;DHT22;29279;50.858;4.392;2023-03-16T04:58:20;7.70;99.90
43679;DHT22;29279;50.858;4.392;2023-03-16T05:00:47;7.60;99.90
43679;DHT22;29279;50.858;4.392;2023-03-16T05:03:13;7.50;99.90
43679;DHT22;29279;50.858;4.392;2023-03-16T05:05:39;7.40;99.90
43679;DHT22;29279;50.858;4.392;2023-03-16T05:08:06;7.40;99.90
43679;DHT22;29279;50.858;4.392;2023-03-16T05:10:33;7.40;99.90
43679;DHT22;29279;50.858;4.392;2023-03-16T05:12:59;7.40;99.90
43679;DHT22;29279;50.858;4.392;2023-03-16T05:15:25;7.40;99.90
43679;DHT22;29279;50.858;4.392;2023-03-16T05:17:52;7.40;99.90
43679;DHT22;29279;50.858;4.392;2023-03-16T05:20:18;7.40;99.90
43679;DHT22;29279;50.858;4.392;2023-03-16T05:22:46;7.50;99.90
43679;DHT22;29279;50.858;4.392;2023-03-16T05:25:13;7.50;99.90
43679;DHT22;29279;50.858;4.392;2023-03-16T05:27:48;7.50;99.90
43679;DHT22;29279;50.858;4.392;2023-03-16T05:30:16;7.40;99.90
43679;DHT22;29279;50.858;4.392;2023-03-16T05:32:42;7.40;99.90
43679;DHT22;29279;50.858;4.392;2023-03-16T05:35:08;7.40;99.90
43679;DHT22;29279;50.858;4.392;2023-03-16T05:37:38;7.50;99.90
43679;DHT22;29279;50.858;4.392;2023-03-16T05:40:06;7.50;99.90
43679;DHT22;29279;50.858;4.392;2023-03-16T05:42:48;7.50;99.90
43679;DHT22;29279;50.858;4.392;2023-03-16T05:45:15;7.60;99.90
43679;DHT22;29279;50.858;4.392;2023-03-16T05:47:41;7.50;99.90
43679;DHT22;29279;50.858;4.392;2023-03-16T05:50:10;7.60;99.90
43679;DHT22;29279;50.858;4.392;2023-03-16T05:52:36;7.60;99.90
43679;DHT22;29279;50.858;4.392;2023-03-16T05:55:04;7.70;99.90
43679;DHT22;29279;50.858;4.392;2023-03-16T05:57:31;7.60;99.90
43679;DHT22;29279;50.858;4.392;2023-03-16T05:59:59;7.60;99.90
43679;DHT22;29279;50.858;4.392;2023-03-16T06:02:24;7.70;99.90
43679;DHT22;29279;50.858;4.392;2023-03-16T06:04:51;7.70;99.90
43679;DHT22;29279;50.858;4.392;2023-03-16T06:07:16;7.70;99.90
43679;DHT22;29279;50.858;4.392;2023-03-16T06:09:42;7.60;99.90
43679;DHT22;29279;50.858;4.392;2023-03-16T06:12:08;7.80;99.90
43679;DHT22;29279;50.858;4.392;2023-03-16T06:14:34;7.70;99.90
43679;DHT22;29279;50.858;4.392;2023-03-16T06:17:00;7.80;99.90
43679;DHT22;29279;50.858;4.392;2023-03-16T06:19:25;7.80;99.90
43679;DHT22;29279;50.858;4.392;2023-03-16T06:21:51;7.80;99.90
43679;DHT22;29279;50.858;4.392;2023-03-16T06:24:17;7.80;99.90
43679;DHT22;29279;50.858;4.392;2023-03-16T06:26:43;7.90;99.90
43679;DHT22;29279;50.858;4.392;2023-03-16T06:29:09;8.00;99.90
43679;DHT22;29279;50.858;4.392;2023-03-16T06:31:35;8.00;99.90
43679;DHT22;29279;50.858;4.392;2023-03-16T06:34:01;8.00;99.90
43679;DHT22;29279;50.858;4.392;2023-03-16T06:36:27;8.00;99.90
43679;DHT22;29279;50.858;4.392;2023-03-16T06:38:53;8.00;99.90
43679;DHT22;29279;50.858;4.392;2023-03-16T06:41:19;8.00;99.90
43679;DHT22;29279;50.858;4.392;2023-03-16T06:43:45;8.00;99.90
43679;DHT22;29279;50.858;4.392;2023-03-16T06:46:13;8.00;99.90
43679;DHT22;29279;50.858;4.392;2023-03-16T06:48:38;8.00;99.90
43679;DHT22;29279;50.858;4.392;2023-03-16T06:51:05;8.10;99.90
43679;DHT22;29279;50.858;4.392;2023-03-16T06:53:32;8.20;99.90
43679;DHT22;29279;50.858;4.392;2023-03-16T06:55:57;8.20;99.90
43679;DHT22;29279;50.858;4.392;2023-03-16T06:58:23;8.10;99.90
43679;DHT22;29279;50.858;4.392;2023-03-16T07:00:49;8.20;99.90
43679;DHT22;29279;50.858;4.392;2023-03-16T07:03:15;8.20;99.90
43679;DHT22;29279;50.858;4.392;2023-03-16T07:05:40;8.30;99.90
43679;DHT22;29279;50.858;4.392;2023-03-16T07:08:06;8.30;99.90
43679;DHT22;29279;50.858;4.392;2023-03-16T07:10:32;8.30;99.90
43679;DHT22;29279;50.858;4.392;2023-03-16T07:12:58;8.50;99.90
43679;DHT22;29279;50.858;4.392;2023-03-16T07:15:24;8.40;99.90
43679;DHT22;29279;50.858;4.392;2023-03-16T07:17:51;8.40;99.90
43679;DHT22;29279;50.858;4.392;2023-03-16T07:20:17;8.30;99.90
43679;DHT22;29279;50.858;4.392;2023-03-16T07:22:43;8.40;99.90
43679;DHT22;29279;50.858;4.392;2023-03-16T07:25:10;8.50;99.90
43679;DHT22;29279;50.858;4.392;2023-03-16T07:27:36;8.40;99.90
43679;DHT22;29279;50.858;4.392;2023-03-16T07:30:03;8.60;99.90
43679;DHT22;29279;50.858;4.392;2023-03-16T07:32:30;8.70;99.90
43679;DHT22;29279;50.858;4.392;2023-03-16T07:34:57;8.70;99.90
43679;DHT22;29279;50.858;4.392;2023-03-16T07:37:24;8.70;99.90
43679;DHT22;29279;50.858;4.392;2023-03-16T07:39:50;8.80;99.90
43679;DHT22;29279;50.858;4.392;2023-03-16T07:42:17;8.90;99.90
43679;DHT22;29279;50.858;4.392;2023-03-16T07:44:44;8.80;99.90
43679;DHT22;29279;50.858;4.392;2023-03-16T07:47:11;8.80;99.90
43679;DHT22;29279;50.858;4.392;2023-03-16T07:49:37;8.90;99.90
43679;DHT22;29279;50.858;4.392;2023-03-16T07:52:06;9.00;99.90
43679;DHT22;29279;50.858;4.392;2023-03-16T07:54:32;9.10;99.90
43679;DHT22;29279;50.858;4.392;2023-03-16T07:56:58;9.00;99.90
43679;DHT22;29279;50.858;4.392;2023-03-16T07:59:23;9.20;99.90
43679;DHT22;29279;50.858;4.392;2023-03-16T08:01:49;9.20;99.90
43679;DHT22;29279;50.858;4.392;2023-03-16T08:04:15;9.30;99.90
43679;DHT22;29279;50.858;4.392;2023-03-16T08:06:41;9.60;99.90
43679;DHT22;29279;50.858;4.392;2023-03-16T08:09:07;9.60;99.90
43679;DHT22;29279;50.858;4.392;2023-03-16T08:11:32;9.70;99.90
43679;DHT22;29279;50.858;4.392;2023-03-16T08:13:58;9.70;99.90
43679;DHT22;29279;50.858;4.392;2023-03-16T08:16:27;9.70;99.90
43679;DHT22;29279;50.858;4.392;2023-03-16T08:18:55;9.90;99.90
43679;DHT22;29279;50.858;4.392;2023-03-16T08:21:22;10.10;99.90
43679;DHT22;29279;50.858;4.392;2023-03-16T08:23:48;10.10;99.90
43679;DHT22;29279;50.858;4.392;2023-03-16T08:26:23;10.10;99.90
43679;DHT22;29279;50.858;4.392;2023-03-16T08:28:51;10.20;99.90
43679;DHT22;29279;50.858;4.392;2023-03-16T08:31:19;10.40;99.90
43679;DHT22;29279;50.858;4.392;2023-03-16T08:33:46;10.40;99.90
43679;DHT22;29279;50.858;4.392;2023-03-16T08:36:14;10.40;99.90
43679;DHT22;29279;50.858;4.392;2023-03-16T08:38:41;10.50;99.90
43679;DHT22;29279;50.858;4.392;2023-03-16T08:41:07;10.70;99.90
43679;DHT22;29279;50.858;4.392;2023-03-16T08:43:34;11.00;99.90
43679;DHT22;29279;50.858;4.392;2023-03-16T08:46:00;11.10;99.70
43679;DHT22;29279;50.858;4.392;2023-03-16T08:48:30;11.30;99.40
43679;DHT22;29279;50.858;4.392;2023-03-16T08:51:01;11.40;98.90
43679;DHT22;29279;50.858;4.392;2023-03-16T08:53:27;11.60;98.40
43679;DHT22;29279;50.858;4.392;2023-03-16T08:56:00;11.70;98.30
43679;DHT22;29279;50.858;4.392;2023-03-16T08:58:29;11.80;98.10
43679;DHT22;29279;50.858;4.392;2023-03-16T09:00:57;11.90;97.60
43679;DHT22;29279;50.858;4.392;2023-03-16T09:03:24;11.80;97.30
43679;DHT22;29279;50.858;4.392;2023-03-16T09:05:50;11.70;97.70
43679;DHT22;29279;50.858;4.392;2023-03-16T09:08:17;11.80;97.20
43679;DHT22;29279;50.858;4.392;2023-03-16T09:10:43;11.80;97.40
43679;DHT22;29279;50.858;4.392;2023-03-16T09:13:09;11.80;97.20
43679;DHT22;29279;50.858;4.392;2023-03-16T09:15:35;11.80;98.00
43679;DHT22;29279;50.858;4.392;2023-03-16T09:18:03;11.90;97.00
43679;DHT22;29279;50.858;4.392;2023-03-16T09:20:29;11.90;96.90
43679;DHT22;29279;50.858;4.392;2023-03-16T09:22:55;11.90;97.00
43679;DHT22;29279;50.858;4.392;2023-03-16T09:25:22;11.90;96.60
43679;DHT22;29279;50.858;4.392;2023-03-16T09:27:47;11.80;96.80
43679;DHT22;29279;50.858;4.392;2023-03-16T09:30:13;11.90;96.60
43679;DHT22;29279;50.858;4.392;2023-03-16T09:32:41;11.90;96.60
43679;DHT22;29279;50.858;4.392;2023-03-16T09:35:07;12.10;96.20
43679;DHT22;29279;50.858;4.392;2023-03-16T09:37:33;12.10;96.40
43679;DHT22;29279;50.858;4.392;2023-03-16T09:39:59;12.10;96.10
43679;DHT22;29279;50.858;4.392;2023-03-16T09:42:44;12.20;95.90
43679;DHT22;29279;50.858;4.392;2023-03-16T09:45:33;12.40;95.50
43679;DHT22;29279;50.858;4.392;2023-03-16T09:48:03;12.80;94.80
43679;DHT22;29279;50.858;4.392;2023-03-16T09:50:36;13.20;94.40
43679;DHT22;29279;50.858;4.392;2023-03-16T09:55:48;13.40;93.50
43679;DHT22;29279;50.858;4.392;2023-03-16T09:58:18;13.60;93.30
43679;DHT22;29279;50.858;4.392;2023-03-16T10:04:33;14.00;92.60
43679;DHT22;29279;50.858;4.392;2023-03-16T10:07:25;14.40;91.70
43679;DHT22;29279;50.858;4.392;2023-03-16T10:10:20;14.80;91.60
43679;DHT22;29279;50.858;4.392;2023-03-16T10:12:50;15.80;90.10
43679;DHT22;29279;50.858;4.392;2023-03-16T10:15:22;16.40;87.70
43679;DHT22;29279;50.858;4.392;2023-03-16T10:17:56;16.80;85.90
43679;DHT22;29279;50.858;4.392;2023-03-16T10:20:27;17.10;85.00
43679;DHT22;29279;50.858;4.392;2023-03-16T10:22:53;17.80;83.50
43679;DHT22;29279;50.858;4.392;2023-03-16T10:27:48;17.40;81.10
43679;DHT22;29279;50.858;4.392;2023-03-16T10:30:29;17.30;80.70
43679;DHT22;29279;50.858;4.392;2023-03-16T10:33:01;17.40;80.50
43679;DHT22;29279;50.858;4.392;2023-03-16T10:35:40;17.90;79.20
43679;DHT22;29279;50.858;4.392;2023-03-16T10:38:08;18.90;78.90
43679;DHT22;29279;50.858;4.392;2023-03-16T10:40:51;20.10;76.50
43679;DHT22;29279;50.858;4.392;2023-03-16T10:43:17;20.00;73.50
43679;DHT22;29279;50.858;4.392;2023-03-16T10:45:44;18.80;74.60
43679;DHT22;29279;50.858;4.392;2023-03-16T10:48:14;18.60;75.30
43679;DHT22;29279;50.858;4.392;2023-03-16T10:50:51;19.00;73.90
43679;DHT22;29279;50.858;4.392;2023-03-16T10:53:30;18.80;73.40
43679;DHT22;29279;50.858;4.392;2023-03-16T10:55:59;18.90;73.50
43679;DHT22;29279;50.858;4.392;2023-03-16T10:58:28;19.00;73.20
43679;DHT22;29279;50.858;4.392;2023-03-16T11:00:54;19.00;71.80
43679;DHT22;29279;50.858;4.392;2023-03-16T11:03:27;18.90;71.50
43679;DHT22;29279;50.858;4.392;2023-03-16T11:06:01;18.90;72.00
43679;DHT22;29279;50.858;4.392;2023-03-16T11:08:31;18.40;72.20
43679;DHT22;29279;50.858;4.392;2023-03-16T11:10:59;18.50;72.80
43679;DHT22;29279;50.858;4.392;2023-03-16T11:13:37;18.80;71.00
43679;DHT22;29279;50.858;4.392;2023-03-16T11:16:30;18.40;70.70
43679;DHT22;29279;50.858;4.392;2023-03-16T11:19:20;17.70;71.00
43679;DHT22;29279;50.858;4.392;2023-03-16T11:22:04;17.50;71.90
43679;DHT22;29279;50.858;4.392;2023-03-16T11:24:43;17.80;71.40
43679;DHT22;29279;50.858;4.392;2023-03-16T11:27:23;17.90;69.90
43679;DHT22;29279;50.858;4.392;2023-03-16T11:30:15;17.30;70.60
43679;DHT22;29279;50.858;4.392;2023-03-16T11:32:51;16.90;72.30
43679;DHT22;29279;50.858;4.392;2023-03-16T11:36:00;16.80;71.60
43679;DHT22;29279;50.858;4.392;2023-03-16T11:41:55;16.50;72.60
43679;DHT22;29279;50.858;4.392;2023-03-16T11:47:14;16.40;72.90
43679;DHT22;29279;50.858;4.392;2023-03-16T11:50:04;16.50;73.00
43679;DHT22;29279;50.858;4.392;2023-03-16T11:52:56;16.60;72.60
43679;DHT22;29279;50.858;4.392;2023-03-16T12:06:45;18.30;71.20
43679;DHT22;29279;50.858;4.392;2023-03-16T12:12:27;19.70;69.30
43679;DHT22;29279;50.858;4.392;2023-03-16T12:15:05;20.20;68.00
43679;DHT22;29279;50.858;4.392;2023-03-16T12:17:35;20.50;67.00
43679;DHT22;29279;50.858;4.392;2023-03-16T12:20:25;20.20;67.00
43679;DHT22;29279;50.858;4.392;2023-03-16T12:22:58;20.50;66.00
43679;DHT22;29279;50.858;4.392;2023-03-16T12:25:34;21.30;65.00
43679;DHT22;29279;50.858;4.392;2023-03-16T12:28:03;21.10;65.00
43679;DHT22;29279;50.858;4.392;2023-03-16T12:39:06;20.40;65.10
43679;DHT22;29279;50.858;4.392;2023-03-16T12:50:16;20.10;64.10
43679;DHT22;29279;50.858;4.392;2023-03-16T12:52:47;19.80;64.20
43679;DHT22;29279;50.858;4.392;2023-03-16T12:55:38;19.40;64.70
43679;DHT22;29279;50.858;4.392;2023-03-16T12:58:06;19.10;65.00
43679;DHT22;29279;50.858;4.392;2023-03-16T13:00:35;18.90;65.30
43679;DHT22;29279;50.858;4.392;2023-03-16T13:03:03;19.00;65.10
43679;DHT22;29279;50.858;4.392;2023-03-16T13:05:44;19.30;65.20
43679;DHT22;29279;50.858;4.392;2023-03-16T13:08:12;19.50;64.40
43679;DHT22;29279;50.858;4.392;2023-03-16T13:10:40;19.30;63.70
43679;DHT22;29279;50.858;4.392;2023-03-16T13:13:16;19.00;63.80
43679;DHT22;29279;50.858;4.392;2023-03-16T13:15:43;19.10;64.40
43679;DHT22;29279;50.858;4.392;2023-03-16T13:28:50;19.10;63.70
43679;DHT22;29279;50.858;4.392;2023-03-16T13:31:40;19.30;63.20
43679;DHT22;29279;50.858;4.392;2023-03-16T13:34:12;19.40;63.30
43679;DHT22;29279;50.858;4.392;2023-03-16T13:36:39;19.00;63.30
43679;DHT22;29279;50.858;4.392;2023-03-16T13:39:22;19.00;63.70
43679;DHT22;29279;50.858;4.392;2023-03-16T13:42:18;19.70;63.80
43679;DHT22;29279;50.858;4.392;2023-03-16T13:44:45;19.80;62.70
43679;DHT22;29279;50.858;4.392;2023-03-16T13:47:15;19.60;63.70
43679;DHT22;29279;50.858;4.392;2023-03-16T13:49:47;19.20;63.20
43679;DHT22;29279;50.858;4.392;2023-03-16T13:52:33;18.50;64.40
43679;DHT22;29279;50.858;4.392;2023-03-16T13:55:05;18.90;64.50
43679;DHT22;29279;50.858;4.392;2023-03-16T13:57:36;19.80;63.20
43679;DHT22;29279;50.858;4.392;2023-03-16T14:02:41;20.40;62.10
43679;DHT22;29279;50.858;4.392;2023-03-16T14:07:51;20.60;61.60
43679;DHT22;29279;50.858;4.392;2023-03-16T14:10:18;21.50;62.10
43679;DHT22;29279;50.858;4.392;2023-03-16T14:12:56;21.30;62.60
43679;DHT22;29279;50.858;4.392;2023-03-16T14:15:25;20.80;62.90
43679;DHT22;29279;50.858;4.392;2023-03-16T14:17:52;19.90;63.60
43679;DHT22;29279;50.858;4.392;2023-03-16T14:20:22;19.70;64.40
43679;DHT22;29279;50.858;4.392;2023-03-16T14:22:51;20.30;63.30
43679;DHT22;29279;50.858;4.392;2023-03-16T14:25:20;20.70;63.80
43679;DHT22;29279;50.858;4.392;2023-03-16T14:27:56;20.50;60.20
43679;DHT22;29279;50.858;4.392;2023-03-16T14:30:24;19.70;61.50
43679;DHT22;29279;50.858;4.392;2023-03-16T14:33:03;18.90;64.00
43679;DHT22;29279;50.858;4.392;2023-03-16T14:35:40;18.50;62.20
43679;DHT22;29279;50.858;4.392;2023-03-16T14:40:55;18.80;63.40
43679;DHT22;29279;50.858;4.392;2023-03-16T14:43:30;19.00;61.50
43679;DHT22;29279;50.858;4.392;2023-03-16T14:45:58;19.10;60.50
43679;DHT22;29279;50.858;4.392;2023-03-16T14:48:24;19.10;61.10
43679;DHT22;29279;50.858;4.392;2023-03-16T14:50:58;19.60;60.80
43679;DHT22;29279;50.858;4.392;2023-03-16T14:53:26;19.90;60.10
43679;DHT22;29279;50.858;4.392;2023-03-16T14:55:57;20.10;59.60
43679;DHT22;29279;50.858;4.392;2023-03-16T14:58:25;20.10;59.30
43679;DHT22;29279;50.858;4.392;2023-03-16T15:00:51;19.70;60.60
43679;DHT22;29279;50.858;4.392;2023-03-16T15:03:29;19.10;61.60
43679;DHT22;29279;50.858;4.392;2023-03-16T15:05:57;18.80;63.00
43679;DHT22;29279;50.858;4.392;2023-03-16T15:08:26;18.70;63.80
43679;DHT22;29279;50.858;4.392;2023-03-16T15:10:54;18.70;63.20
43679;DHT22;29279;50.858;4.392;2023-03-16T15:13:22;18.60;64.60
43679;DHT22;29279;50.858;4.392;2023-03-16T15:16:09;18.30;63.00
43679;DHT22;29279;50.858;4.392;2023-03-16T15:18:36;18.20;65.00
43679;DHT22;29279;50.858;4.392;2023-03-16T15:21:09;18.30;62.80
43679;DHT22;29279;50.858;4.392;2023-03-16T15:23:37;18.30;62.80
43679;DHT22;29279;50.858;4.392;2023-03-16T15:26:03;18.30;63.20
43679;DHT22;29279;50.858;4.392;2023-03-16T15:28:32;18.30;64.30
43679;DHT22;29279;50.858;4.392;2023-03-16T15:31:01;18.30;63.20
43679;DHT22;29279;50.858;4.392;2023-03-16T15:33:27;18.20;64.10
43679;DHT22;29279;50.858;4.392;2023-03-16T15:35:55;18.10;63.90
43679;DHT22;29279;50.858;4.392;2023-03-16T15:38:44;17.90;64.80
43679;DHT22;29279;50.858;4.392;2023-03-16T15:41:11;17.60;64.70
43679;DHT22;29279;50.858;4.392;2023-03-16T15:43:37;17.20;65.30
43679;DHT22;29279;50.858;4.392;2023-03-16T15:46:04;17.10;65.90
43679;DHT22;29279;50.858;4.392;2023-03-16T15:48:31;17.00;67.00
43679;DHT22;29279;50.858;4.392;2023-03-16T15:51:01;16.80;67.90
43679;DHT22;29279;50.858;4.392;2023-03-16T15:53:35;16.70;68.40
43679;DHT22;29279;50.858;4.392;2023-03-16T15:56:12;16.60;68.50
43679;DHT22;29279;50.858;4.392;2023-03-16T15:58:40;16.60;68.70
43679;DHT22;29279;50.858;4.392;2023-03-16T16:01:10;16.70;68.40
43679;DHT22;29279;50.858;4.392;2023-03-16T16:03:41;16.50;68.40
43679;DHT22;29279;50.858;4.392;2023-03-16T16:06:09;16.30;69.10
43679;DHT22;29279;50.858;4.392;2023-03-16T16:08:36;16.20;68.50
43679;DHT22;29279;50.858;4.392;2023-03-16T16:11:02;16.10;68.90
43679;DHT22;29279;50.858;4.392;2023-03-16T16:13:34;16.20;68.10
43679;DHT22;29279;50.858;4.392;2023-03-16T16:15:59;16.50;67.70
43679;DHT22;29279;50.858;4.392;2023-03-16T16:18:32;16.50;67.40
43679;DHT22;29279;50.858;4.392;2023-03-16T16:21:02;16.60;67.40
43679;DHT22;29279;50.858;4.392;2023-03-16T16:23:29;16.50;67.40
43679;DHT22;29279;50.858;4.392;2023-03-16T16:26:00;16.40;67.60
43679;DHT22;29279;50.858;4.392;2023-03-16T16:28:29;16.40;68.00
43679;DHT22;29279;50.858;4.392;2023-03-16T16:30:56;16.30;68.40
43679;DHT22;29279;50.858;4.392;2023-03-16T16:35:50;16.30;67.70
43679;DHT22;29279;50.858;4.392;2023-03-16T16:38:16;16.10;68.30
43679;DHT22;29279;50.858;4.392;2023-03-16T16:40:43;16.00;68.20
43679;DHT22;29279;50.858;4.392;2023-03-16T16:43:35;15.90;68.10
43679;DHT22;29279;50.858;4.392;2023-03-16T16:46:04;15.70;68.30
43679;DHT22;29279;50.858;4.392;2023-03-16T16:48:31;15.60;68.80
43679;DHT22;29279;50.858;4.392;2023-03-16T16:50:59;15.50;68.60
43679;DHT22;29279;50.858;4.392;2023-03-16T16:53:25;15.50;68.90
43679;DHT22;29279;50.858;4.392;2023-03-16T16:55:52;15.60;69.50
43679;DHT22;29279;50.858;4.392;2023-03-16T16:58:18;15.60;69.10
43679;DHT22;29279;50.858;4.392;2023-03-16T17:00:46;15.40;68.80
43679;DHT22;29279;50.858;4.392;2023-03-16T17:03:25;15.20;69.00
43679;DHT22;29279;50.858;4.392;2023-03-16T17:05:54;15.30;68.90
43679;DHT22;29279;50.858;4.392;2023-03-16T17:08:20;15.40;68.70
43679;DHT22;29279;50.858;4.392;2023-03-16T17:10:47;15.40;68.40